ROMMA est une association bénévole à but non lucratif. Votre soutien est indispensable : ADHERER à ROMMA ou FAIRE un DON

Val-d'Arly - (73, Savoie)

Beaufortain (2050 m)   Longitude: 06° 35' 21" E   Latitude: 45° 46' 53" N Station romma n°118
 

Détail journalier du     <<     >>

Température Humidité Vent Dir Rafale Dir. rafale Ensol.
Heure (°C) (%) (km/h) (km/h) (min)
01:00 3.3252ENE5ENE0
02:00 3.0241E5E0
03:00 3.1241ENE5ENE0
04:00 2.9212ENE6O0
05:00 3.1212ENE5ENE0
06:00 3.1222E6ENE0
07:00 3.4203ENE6ENE0
08:00 4.3184ENE8ENE60
09:00 5.1162ENE6NE60
10:00 5.1253NE11OSO60
11:00 5.6245SO10SSO60
12:00 5.62911SO19SO60
13:00 6.4219SO15OSO60
14:00 6.6207SSO16SO60
15:00 7.0205SO11OSO60
16:00 8.5192S8SSO30
17:00 7.9231E6ESE60
18:00 6.2296NE15E60
19:00 5.82712E16ESE0
20:00 5.72312ESE19ESE0
21:00 5.72613ESE19ESE0
22:00 5.7266SE15SE0
23:00 5.6264ENE13SE0
minuit 5.4255ENE10ESE0

Graphique du 22-03-2019

 

Serveur OMMA